Madrid, New Mexico
Current Conditions -  °F | °C
As of 3:53 AM on Sunday 23 Nov 2014 (Local Time) from KSAF Reporting Station
Scattered Clouds Scattered Clouds  
Wind Chill: 33°   Ceiling: Unl
Heat Index: 33°   Visibility: 10mi
Dew Point: 16°   Wind: 0mph
Humidity: 50%   Direction: NA
Pressure: 29.76"   Gusts: NA
Location:  35.4436°N, 106.089°W
Report Text: KSAF 231053Z AUTO 00000KT 10SM SCT110 01/M09 A2976 RMK AO2 SLP038 T00061089
Loading
Personal Weather Stations






























Interactive Weather Map New forecast layout! Learn more

10-Day Weather Forecast

Advertisements
Track Severe Weather on mobile